createdAt,value
2023-05-24T00:00:44.600Z,88.69
2023-05-24T00:01:34.634Z,84.73
2023-05-24T00:02:24.868Z,85.31
2023-05-24T00:03:14.801Z,79.95
2023-05-24T00:04:05.020Z,86.21
2023-05-24T00:04:54.885Z,89.07
2023-05-24T00:05:44.950Z,87.08
2023-05-24T00:06:35.049Z,82.29
2023-05-24T00:07:25.094Z,83.35
2023-05-24T00:08:15.112Z,89.13
2023-05-24T00:09:05.239Z,87.60
2023-05-24T00:09:55.246Z,85.07
2023-05-24T00:10:45.390Z,84.27
2023-05-24T00:11:35.361Z,84.75
2023-05-24T00:12:25.440Z,87.71
2023-05-24T00:13:15.425Z,85.39
2023-05-24T00:14:05.584Z,84.77
2023-05-24T00:14:55.523Z,87.97
2023-05-24T00:15:45.634Z,88.14
2023-05-24T00:16:35.787Z,84.83
2023-05-24T00:17:25.808Z,85.10
2023-05-24T00:18:15.771Z,85.11
2023-05-24T00:19:05.924Z,89.07
2023-05-24T00:19:55.889Z,85.22
2023-05-24T00:20:46.414Z,88.32
2023-05-24T00:21:36.009Z,87.49
2023-05-24T00:22:26.199Z,85.93
2023-05-24T00:23:16.105Z,86.99
2023-05-24T00:24:06.268Z,83.93
2023-05-24T00:24:56.239Z,85.81
2023-05-24T00:25:46.352Z,88.31
2023-05-24T00:26:36.356Z,87.96
2023-05-24T00:27:26.468Z,86.76
2023-05-24T00:28:16.446Z,87.62
2023-05-24T00:29:06.616Z,88.02
2023-05-24T00:29:56.548Z,88.12
2023-05-24T00:30:46.665Z,85.36
2023-05-24T00:31:36.779Z,87.66
2023-05-24T00:32:26.906Z,85.29
2023-05-24T00:33:16.766Z,81.27
2023-05-24T00:34:06.883Z,82.71
2023-05-24T00:34:56.875Z,85.24
2023-05-24T00:35:46.998Z,85.20
2023-05-24T00:36:37.000Z,84.38
2023-05-24T00:37:27.051Z,86.14
2023-05-24T00:38:17.070Z,83.96
2023-05-24T00:39:07.210Z,82.13
2023-05-24T00:39:57.877Z,83.25
2023-05-24T00:40:47.266Z,83.73
2023-05-24T00:41:37.319Z,84.64
2023-05-24T00:42:27.395Z,85.06
2023-05-24T00:43:17.374Z,83.31
2023-05-24T00:44:07.542Z,88.53
2023-05-24T00:44:57.472Z,82.53
2023-05-24T00:45:47.634Z,85.09
2023-05-24T00:46:37.742Z,87.37
2023-05-24T00:47:27.783Z,86.53
2023-05-24T00:48:17.709Z,88.72
2023-05-24T00:49:07.728Z,84.32
2023-05-24T00:49:57.871Z,85.89
2023-05-24T00:50:47.836Z,85.25
2023-05-24T00:51:37.946Z,87.13
2023-05-24T00:52:27.957Z,82.87
2023-05-24T00:53:18.027Z,84.88
2023-05-24T00:54:08.073Z,84.34
2023-05-24T00:54:58.220Z,82.16
2023-05-24T00:55:48.176Z,84.47
2023-05-24T00:56:38.271Z,85.76
2023-05-24T00:57:28.318Z,81.42
2023-05-24T00:58:18.399Z,82.02
2023-05-24T00:59:08.415Z,80.67
2023-05-24T00:59:58.542Z,82.59
2023-05-24T01:00:48.512Z,80.16
2023-05-24T01:01:38.655Z,79.38
2023-05-24T01:02:28.771Z,86.42
2023-05-24T01:03:18.815Z,76.56
2023-05-24T01:04:08.742Z,76.19
2023-05-24T01:04:58.884Z,81.70
2023-05-24T01:05:48.867Z,77.17
2023-05-24T01:06:38.967Z,82.05
2023-05-24T01:07:28.984Z,78.42
2023-05-24T01:08:19.083Z,78.98
2023-05-24T01:09:09.101Z,77.34
2023-05-24T01:09:59.248Z,78.53
2023-05-24T01:10:49.214Z,77.98
2023-05-24T01:11:39.426Z,77.46
2023-05-24T01:12:29.320Z,80.21
2023-05-24T01:13:19.454Z,79.60
2023-05-24T01:14:09.458Z,77.07
2023-05-24T01:14:59.573Z,79.12
2023-05-24T01:15:49.587Z,78.12
2023-05-24T01:16:39.713Z,78.23
2023-05-24T01:17:29.696Z,75.69
2023-05-24T01:18:19.769Z,79.27
2023-05-24T01:19:09.749Z,78.07
2023-05-24T01:20:00.146Z,78.96
2023-05-24T01:20:49.970Z,77.31
2023-05-24T01:21:40.003Z,78.21
2023-05-24T01:22:29.933Z,77.08
2023-05-24T01:23:20.027Z,81.00
2023-05-24T01:24:10.034Z,78.11
2023-05-24T01:25:00.205Z,77.41
2023-05-24T01:25:50.131Z,77.32
2023-05-24T01:26:40.234Z,76.63
2023-05-24T01:27:30.252Z,85.78
2023-05-24T01:28:20.366Z,77.45
2023-05-24T01:29:10.402Z,77.98
2023-05-24T01:30:00.556Z,75.64
2023-05-24T01:30:50.484Z,79.17
2023-05-24T01:31:40.639Z,80.36
2023-05-24T01:32:30.615Z,76.95
2023-05-24T01:33:20.701Z,77.54
2023-05-24T01:34:10.726Z,79.46
2023-05-24T01:35:00.853Z,78.08
2023-05-24T01:35:50.822Z,81.83
2023-05-24T01:36:40.921Z,77.11
2023-05-24T01:37:30.932Z,78.03
2023-05-24T01:38:21.046Z,81.50
2023-05-24T01:39:11.059Z,80.64
2023-05-24T01:40:01.198Z,79.69
2023-05-24T01:40:51.163Z,81.46
2023-05-24T01:41:41.260Z,77.40
2023-05-24T01:42:31.277Z,83.08
2023-05-24T01:43:21.387Z,84.96
2023-05-24T01:44:11.418Z,86.33
2023-05-24T01:45:01.551Z,84.22
2023-05-24T01:45:51.506Z,84.21
2023-05-24T01:46:41.610Z,80.88
2023-05-24T01:47:31.628Z,83.54
2023-05-24T01:48:21.729Z,84.27
2023-05-24T01:49:11.768Z,88.01
2023-05-24T01:50:01.875Z,81.91
2023-05-24T01:50:51.854Z,85.10
2023-05-24T01:51:41.986Z,79.18
2023-05-24T01:52:32.018Z,85.17
2023-05-24T01:53:22.070Z,81.04
2023-05-24T01:54:12.088Z,85.08
2023-05-24T01:55:02.251Z,83.86
2023-05-24T01:55:52.220Z,81.68
2023-05-24T01:56:42.420Z,83.84
2023-05-24T01:57:32.332Z,83.81
2023-05-24T01:58:22.420Z,86.31
2023-05-24T01:59:12.440Z,83.05
2023-05-24T02:00:02.568Z,84.94
2023-05-24T02:00:52.604Z,82.69
2023-05-24T02:01:42.655Z,82.34
2023-05-24T02:02:32.727Z,82.83
2023-05-24T02:03:22.869Z,86.10
2023-05-24T02:04:12.761Z,85.42
2023-05-24T02:05:02.910Z,83.52
2023-05-24T02:05:52.875Z,86.03
2023-05-24T02:06:43.000Z,83.74
2023-05-24T02:07:33.027Z,87.07
2023-05-24T02:08:23.116Z,83.01
2023-05-24T02:09:13.089Z,88.07
2023-05-24T02:10:03.253Z,84.52
2023-05-24T02:10:53.186Z,83.53
2023-05-24T02:11:43.326Z,79.66
2023-05-24T02:12:33.311Z,86.20
2023-05-24T02:13:23.450Z,87.71
2023-05-24T02:14:13.447Z,87.41
2023-05-24T02:15:03.598Z,86.17
2023-05-24T02:15:53.529Z,86.49
2023-05-24T02:16:43.704Z,86.07
2023-05-24T02:17:33.659Z,85.51
2023-05-24T02:18:23.794Z,83.53
2023-05-24T02:19:13.766Z,81.27
2023-05-24T02:20:04.012Z,84.62
2023-05-24T02:20:53.889Z,87.30
2023-05-24T02:21:44.017Z,83.99
2023-05-24T02:22:34.036Z,84.00
2023-05-24T02:23:24.138Z,82.39
2023-05-24T02:24:14.169Z,89.28
2023-05-24T02:25:04.278Z,87.54
2023-05-24T02:25:54.294Z,84.46
2023-05-24T02:26:44.461Z,83.05
2023-05-24T02:27:34.410Z,82.76
2023-05-24T02:28:24.579Z,79.23
2023-05-24T02:29:14.514Z,82.11
2023-05-24T02:30:04.623Z,83.79
2023-05-24T02:30:54.673Z,84.97
2023-05-24T02:31:44.832Z,81.79
2023-05-24T02:32:34.792Z,83.48
2023-05-24T02:33:24.920Z,77.76
2023-05-24T02:34:14.868Z,80.88
2023-05-24T02:35:04.972Z,83.96
2023-05-24T02:35:54.988Z,81.30
2023-05-24T02:36:45.149Z,85.59
2023-05-24T02:37:35.127Z,78.89
2023-05-24T02:38:25.273Z,83.11
2023-05-24T02:39:15.248Z,85.24
2023-05-24T02:40:05.414Z,84.79
2023-05-24T02:40:55.340Z,83.22
2023-05-24T02:41:45.512Z,81.87
2023-05-24T02:42:35.460Z,81.70
2023-05-24T02:43:25.622Z,82.59
2023-05-24T02:44:15.597Z,82.76
2023-05-24T02:45:05.751Z,82.74
2023-05-24T02:45:55.689Z,82.79
2023-05-24T02:46:45.854Z,81.65
2023-05-24T02:47:35.873Z,86.46
2023-05-24T02:48:25.971Z,82.62
2023-05-24T02:49:15.970Z,82.41
2023-05-24T02:50:06.096Z,82.31
2023-05-24T02:50:56.080Z,84.99
2023-05-24T02:51:46.277Z,84.79
2023-05-24T02:52:36.220Z,82.41
2023-05-24T02:53:26.291Z,79.80
2023-05-24T02:54:16.305Z,78.70
2023-05-24T02:55:06.435Z,81.69
2023-05-24T02:55:56.415Z,79.43
2023-05-24T02:56:46.517Z,85.29
2023-05-24T02:57:36.532Z,79.97
2023-05-24T02:58:26.646Z,79.22
2023-05-24T02:59:16.669Z,77.75
2023-05-24T03:00:06.777Z,78.92
2023-05-24T03:00:56.799Z,79.76
2023-05-24T03:01:46.999Z,82.59
2023-05-24T03:02:36.991Z,80.86
2023-05-24T03:03:27.165Z,80.80
2023-05-24T03:04:17.008Z,82.15
2023-05-24T03:05:07.121Z,81.09
2023-05-24T03:05:57.096Z,79.78
2023-05-24T03:06:47.223Z,83.44
2023-05-24T03:07:37.242Z,79.97
2023-05-24T03:08:27.315Z,80.35
2023-05-24T03:09:17.340Z,81.65
2023-05-24T03:10:07.465Z,79.66
2023-05-24T03:10:57.441Z,80.52
2023-05-24T03:11:47.536Z,78.12
2023-05-24T03:12:37.564Z,83.26
2023-05-24T03:13:27.671Z,78.55
2023-05-24T03:14:17.679Z,80.76
2023-05-24T03:15:07.809Z,78.27
2023-05-24T03:15:57.811Z,81.40
2023-05-24T03:16:47.884Z,78.30
2023-05-24T03:17:37.959Z,81.74
2023-05-24T03:18:28.011Z,78.44
2023-05-24T03:19:18.020Z,81.70
2023-05-24T03:20:08.208Z,80.76
2023-05-24T03:20:58.166Z,77.88
2023-05-24T03:21:48.338Z,80.67
2023-05-24T03:22:38.262Z,80.24
2023-05-24T03:23:28.346Z,77.60
2023-05-24T03:24:18.365Z,80.31
2023-05-24T03:25:08.494Z,78.39
2023-05-24T03:25:58.466Z,81.12
2023-05-24T03:26:48.571Z,78.72
2023-05-24T03:27:38.587Z,75.65
2023-05-24T03:28:28.693Z,79.96
2023-05-24T03:29:18.715Z,80.29
2023-05-24T03:30:08.840Z,77.50
2023-05-24T03:30:58.812Z,79.48
2023-05-24T03:31:48.945Z,83.36
2023-05-24T03:32:38.961Z,80.42
2023-05-24T03:33:29.033Z,79.47
2023-05-24T03:34:19.052Z,79.80
2023-05-24T03:35:09.187Z,80.92
2023-05-24T03:35:59.182Z,81.28
2023-05-24T03:36:49.263Z,80.18
2023-05-24T03:37:39.298Z,80.21
2023-05-24T03:38:29.377Z,83.15
2023-05-24T03:39:19.399Z,78.13
2023-05-24T03:40:10.551Z,83.22
2023-05-24T03:40:59.536Z,84.35
2023-05-24T03:41:49.703Z,82.46
2023-05-24T03:42:39.639Z,79.65
2023-05-24T03:43:29.723Z,81.54
2023-05-24T03:44:19.759Z,78.71
2023-05-24T03:45:09.868Z,76.56
2023-05-24T03:45:59.870Z,82.20
2023-05-24T03:46:50.054Z,79.23
2023-05-24T03:47:40.061Z,80.04
2023-05-24T03:48:30.064Z,79.19
2023-05-24T03:49:20.090Z,79.00
2023-05-24T03:50:10.212Z,78.41
2023-05-24T03:51:00.190Z,78.95
2023-05-24T03:51:50.414Z,81.72
2023-05-24T03:52:40.338Z,86.78
2023-05-24T03:53:30.513Z,86.77
2023-05-24T03:54:20.448Z,83.29
2023-05-24T03:55:10.558Z,88.33
2023-05-24T03:56:00.577Z,82.98
2023-05-24T03:56:50.731Z,85.11
2023-05-24T03:57:40.712Z,83.12
2023-05-24T03:58:30.850Z,85.81
2023-05-24T03:59:20.835Z,76.63
2023-05-24T04:00:11.006Z,79.25
2023-05-24T04:01:00.996Z,80.08
2023-05-24T04:01:51.116Z,72.28
2023-05-24T04:02:41.187Z,78.00
2023-05-24T04:03:31.287Z,74.95
2023-05-24T04:04:21.198Z,78.81
2023-05-24T04:05:11.354Z,76.93
2023-05-24T04:06:01.295Z,77.44
2023-05-24T04:06:51.418Z,76.90
2023-05-24T04:07:41.425Z,76.82
2023-05-24T04:08:31.560Z,76.96
2023-05-24T04:09:21.514Z,74.37
2023-05-24T04:10:11.682Z,76.68
2023-05-24T04:11:01.623Z,75.17
2023-05-24T04:11:51.754Z,75.66
2023-05-24T04:12:41.770Z,80.36
2023-05-24T04:13:31.882Z,76.77
2023-05-24T04:14:21.860Z,75.29
2023-05-24T04:15:12.023Z,77.68
2023-05-24T04:16:01.975Z,73.13
2023-05-24T04:16:52.166Z,79.03
2023-05-24T04:17:42.278Z,76.31
2023-05-24T04:18:32.353Z,76.90
2023-05-24T04:19:22.227Z,76.74
2023-05-24T04:20:12.283Z,78.73
2023-05-24T04:21:02.297Z,82.80
2023-05-24T04:21:52.440Z,86.04
2023-05-24T04:22:42.422Z,83.52
2023-05-24T04:23:32.583Z,83.24
2023-05-24T04:24:22.543Z,83.75
2023-05-24T04:25:12.818Z,83.41
2023-05-24T04:26:02.651Z,79.54
2023-05-24T04:26:52.791Z,81.41
2023-05-24T04:27:42.773Z,81.42
2023-05-24T04:28:32.904Z,81.47
2023-05-24T04:29:22.884Z,81.59
2023-05-24T04:30:12.963Z,78.98
2023-05-24T04:31:03.021Z,83.17
2023-05-24T04:31:53.183Z,85.00
2023-05-24T04:32:43.140Z,83.69
2023-05-24T04:33:33.249Z,81.65
2023-05-24T04:34:23.230Z,82.42
2023-05-24T04:35:13.417Z,83.59
2023-05-24T04:36:03.337Z,90.22
2023-05-24T04:36:53.479Z,90.29
2023-05-24T04:37:43.455Z,91.08
2023-05-24T04:38:33.593Z,91.85
2023-05-24T04:39:23.581Z,92.05
2023-05-24T04:40:13.693Z,95.89
2023-05-24T04:41:03.673Z,91.19
2023-05-24T04:41:53.767Z,95.27
2023-05-24T04:42:43.789Z,90.38
2023-05-24T04:43:33.860Z,99.52
2023-05-24T04:44:23.936Z,94.20
2023-05-24T04:45:13.978Z,90.46
2023-05-24T04:46:04.065Z,87.53
2023-05-24T04:46:54.079Z,90.52
2023-05-24T04:47:44.185Z,88.24
2023-05-24T04:48:34.196Z,89.96
2023-05-24T04:49:24.218Z,89.09
2023-05-24T04:50:14.295Z,89.37
2023-05-24T04:51:04.326Z,84.87
2023-05-24T04:51:55.222Z,88.97
2023-05-24T04:52:44.448Z,92.09
2023-05-24T04:53:34.555Z,86.38
2023-05-24T04:54:24.566Z,91.91
2023-05-24T04:55:14.664Z,86.56
2023-05-24T04:56:04.706Z,87.91
2023-05-24T04:56:54.823Z,88.47
2023-05-24T04:57:44.829Z,85.43
2023-05-24T04:58:34.902Z,86.65
2023-05-24T04:59:24.931Z,89.61
2023-05-24T05:00:15.006Z,86.33
2023-05-24T05:01:05.067Z,86.80
2023-05-24T05:01:55.201Z,87.28
2023-05-24T05:02:45.260Z,88.35
2023-05-24T05:03:35.383Z,88.39
2023-05-24T05:04:25.301Z,84.39
2023-05-24T05:05:15.365Z,84.57
2023-05-24T05:06:05.430Z,81.38
2023-05-24T05:06:55.527Z,84.78
2023-05-24T05:07:45.565Z,83.50
2023-05-24T05:08:35.646Z,85.51
2023-05-24T05:09:25.678Z,83.96
2023-05-24T05:10:15.757Z,86.01
2023-05-24T05:11:05.843Z,85.54
2023-05-24T05:11:55.901Z,86.16
2023-05-24T05:12:45.931Z,88.80
2023-05-24T05:13:36.006Z,83.80
2023-05-24T05:14:26.084Z,87.72
2023-05-24T05:15:16.148Z,90.45
2023-05-24T05:16:06.197Z,87.93
2023-05-24T05:16:56.292Z,86.49
2023-05-24T05:17:46.275Z,86.88
2023-05-24T05:18:36.347Z,83.95
2023-05-24T05:19:26.421Z,88.04
2023-05-24T05:20:16.509Z,88.06
2023-05-24T05:21:06.517Z,87.44
2023-05-24T05:21:56.613Z,88.90
2023-05-24T05:22:46.638Z,89.35
2023-05-24T05:23:36.718Z,88.29
2023-05-24T05:24:26.786Z,86.52
2023-05-24T05:25:16.856Z,84.99
2023-05-24T05:26:06.930Z,83.72
2023-05-24T05:26:57.039Z,80.83
2023-05-24T05:27:47.039Z,83.94
2023-05-24T05:28:37.120Z,81.44
2023-05-24T05:29:27.158Z,84.86
2023-05-24T05:30:17.238Z,87.47
2023-05-24T05:31:07.255Z,86.91
2023-05-24T05:31:57.397Z,83.04
2023-05-24T05:32:47.446Z,85.66
2023-05-24T05:33:38.518Z,86.35
2023-05-24T05:34:27.463Z,86.02
2023-05-24T05:35:17.505Z,84.83
2023-05-24T05:36:07.574Z,82.14
2023-05-24T05:36:57.664Z,84.77
2023-05-24T05:37:47.719Z,88.01
2023-05-24T05:38:37.771Z,85.59
2023-05-24T05:39:27.844Z,83.07
2023-05-24T05:40:17.909Z,85.75
2023-05-24T05:41:07.938Z,88.58
2023-05-24T05:41:58.028Z,83.99
2023-05-24T05:42:48.076Z,85.21
2023-05-24T05:43:38.129Z,84.46
2023-05-24T05:44:28.181Z,88.31
2023-05-24T05:45:18.268Z,85.37
2023-05-24T05:46:08.370Z,86.66
2023-05-24T05:46:58.390Z,89.01
2023-05-24T05:47:48.536Z,89.37
2023-05-24T05:48:38.516Z,82.85
2023-05-24T05:49:28.555Z,86.72
2023-05-24T05:50:18.632Z,84.29
2023-05-24T05:51:08.664Z,85.59
2023-05-24T05:51:58.719Z,83.83
2023-05-24T05:52:48.743Z,87.82
2023-05-24T05:53:38.833Z,84.02
2023-05-24T05:54:28.877Z,84.38
2023-05-24T05:55:18.923Z,90.70
2023-05-24T05:56:08.969Z,90.70
2023-05-24T05:57:01.367Z,86.17
2023-05-24T05:57:49.097Z,86.29
2023-05-24T05:58:39.240Z,86.40
2023-05-24T05:59:29.223Z,86.85
2023-05-24T06:00:19.287Z,86.19
2023-05-24T06:01:09.361Z,88.29
2023-05-24T06:01:59.443Z,85.97
2023-05-24T06:02:49.622Z,86.64
2023-05-24T06:03:39.830Z,92.50
2023-05-24T06:04:29.668Z,88.26
2023-05-24T06:05:19.684Z,93.31
2023-05-24T06:06:09.753Z,89.33
2023-05-24T06:06:59.850Z,92.47
2023-05-24T06:07:49.887Z,92.36
2023-05-24T06:08:39.954Z,91.74
2023-05-24T06:09:30.023Z,92.27
2023-05-24T06:10:20.086Z,95.09
2023-05-24T06:11:10.156Z,91.36
2023-05-24T06:12:00.309Z,97.73
2023-05-24T06:12:50.262Z,92.30
2023-05-24T06:13:40.337Z,89.83
2023-05-24T06:14:30.496Z,93.42
2023-05-24T06:15:20.479Z,93.93
2023-05-24T06:16:10.612Z,94.24
2023-05-24T06:17:00.619Z,98.26
2023-05-24T06:17:50.635Z,95.61
2023-05-24T06:18:47.437Z,97.10
2023-05-24T06:19:31.727Z,92.53
2023-05-24T06:20:20.854Z,94.41
2023-05-24T06:21:10.849Z,96.97
2023-05-24T06:22:00.917Z,93.14
2023-05-24T06:22:50.963Z,95.13
2023-05-24T06:23:41.001Z,93.18
2023-05-24T06:24:31.027Z,88.55
2023-05-24T06:25:21.137Z,95.19
2023-05-24T06:26:11.150Z,91.82
2023-05-24T06:27:02.365Z,91.81
2023-05-24T06:27:51.246Z,92.99
2023-05-24T06:28:41.326Z,90.37
2023-05-24T06:29:31.393Z,90.60
2023-05-24T06:30:21.544Z,96.42
2023-05-24T06:31:11.574Z,86.04
2023-05-24T06:32:01.670Z,97.20
2023-05-24T06:32:51.681Z,92.19
2023-05-24T06:33:44.647Z,92.41
2023-05-24T06:34:32.788Z,92.48
2023-05-24T06:35:21.857Z,93.64
2023-05-24T06:36:11.937Z,93.94
2023-05-24T06:37:02.013Z,94.05
2023-05-24T06:37:52.016Z,95.61
2023-05-24T06:38:42.072Z,91.44
2023-05-24T06:39:32.122Z,92.97
2023-05-24T06:40:22.192Z,99.87
2023-05-24T06:41:12.241Z,105.03
2023-05-24T06:42:02.354Z,101.65
2023-05-24T06:42:52.364Z,102.14
2023-05-24T06:43:42.439Z,103.77
2023-05-24T06:44:32.469Z,101.16
2023-05-24T06:45:22.554Z,97.39
2023-05-24T06:46:12.596Z,102.06
2023-05-24T06:47:02.728Z,99.75
2023-05-24T06:47:52.773Z,101.94
2023-05-24T06:48:42.858Z,98.63
2023-05-24T06:49:32.803Z,98.72
2023-05-24T06:50:22.875Z,103.98
2023-05-24T06:51:12.976Z,95.35
2023-05-24T06:52:03.042Z,102.44
2023-05-24T06:52:53.069Z,104.61
2023-05-24T06:53:43.146Z,97.06
2023-05-24T06:54:33.214Z,100.05
2023-05-24T06:55:23.286Z,100.44
2023-05-24T06:56:13.349Z,102.43
2023-05-24T06:57:03.455Z,97.99
2023-05-24T06:57:53.469Z,103.00
2023-05-24T06:58:43.543Z,103.77
2023-05-24T06:59:33.580Z,102.07
2023-05-24T07:00:23.667Z,101.86
2023-05-24T07:01:13.753Z,102.41
2023-05-24T07:02:04.302Z,99.46
2023-05-24T07:02:53.898Z,100.13
2023-05-24T07:03:43.887Z,97.20
2023-05-24T07:04:34.032Z,99.98
2023-05-24T07:05:24.005Z,100.13
2023-05-24T07:06:14.122Z,95.62
2023-05-24T07:07:04.169Z,99.88
2023-05-24T07:07:54.201Z,95.26
2023-05-24T07:08:44.233Z,96.89
2023-05-24T07:09:34.257Z,107.05
2023-05-24T07:10:24.336Z,109.43
2023-05-24T07:11:14.431Z,109.66
2023-05-24T07:12:05.433Z,111.77
2023-05-24T07:12:54.537Z,115.74
2023-05-24T07:13:44.688Z,108.61
2023-05-24T07:14:34.649Z,106.06
2023-05-24T07:15:24.718Z,106.70
2023-05-24T07:16:14.757Z,105.65
2023-05-24T07:17:04.934Z,106.81
2023-05-24T07:17:55.062Z,104.72
2023-05-24T07:18:44.922Z,106.03
2023-05-24T07:19:34.995Z,107.57
2023-05-24T07:20:25.202Z,103.90
2023-05-24T07:21:15.116Z,103.08
2023-05-24T07:22:05.214Z,104.43
2023-05-24T07:22:55.240Z,103.05
2023-05-24T07:23:45.312Z,98.65
2023-05-24T07:24:35.351Z,100.97
2023-05-24T07:25:25.442Z,107.37
2023-05-24T07:26:15.448Z,116.21
2023-05-24T07:27:05.583Z,121.85
2023-05-24T07:27:55.568Z,125.18
2023-05-24T07:28:45.646Z,129.80
2023-05-24T07:29:35.716Z,133.74
2023-05-24T07:31:16.852Z,132.02
2023-05-24T07:32:05.994Z,132.99
2023-05-24T07:32:56.064Z,134.32
2023-05-24T07:33:46.083Z,131.91
2023-05-24T07:34:36.095Z,130.90
2023-05-24T07:35:26.188Z,133.26
2023-05-24T07:36:16.233Z,134.58
2023-05-24T07:37:06.304Z,141.49
2023-05-24T07:37:56.328Z,145.24
2023-05-24T07:38:46.401Z,147.46
2023-05-24T07:39:36.475Z,149.44
2023-05-24T07:40:26.532Z,149.21
2023-05-24T07:41:16.588Z,151.38
2023-05-24T07:42:06.693Z,150.92
2023-05-24T07:42:56.710Z,150.57
2023-05-24T07:43:46.796Z,146.58
2023-05-24T07:44:36.820Z,149.61
2023-05-24T07:45:26.892Z,149.90
2023-05-24T07:46:17.000Z,152.80
2023-05-24T07:47:07.071Z,154.27
2023-05-24T07:47:57.272Z,143.71
2023-05-24T07:48:47.161Z,137.56
2023-05-24T07:49:37.229Z,131.22
2023-05-24T07:50:27.280Z,129.06
2023-05-24T07:51:17.286Z,129.24
2023-05-24T07:52:07.377Z,129.63
2023-05-24T07:52:57.394Z,123.39
2023-05-24T07:53:47.462Z,121.49
2023-05-24T07:54:37.495Z,120.14
2023-05-24T07:55:27.571Z,114.84
2023-05-24T07:56:17.653Z,117.74
2023-05-24T07:57:09.447Z,118.26
2023-05-24T07:57:57.786Z,117.90
2023-05-24T07:58:47.829Z,115.47
2023-05-24T07:59:37.898Z,113.16
2023-05-24T08:00:27.957Z,113.46
2023-05-24T08:01:18.019Z,109.60
2023-05-24T08:02:08.111Z,111.35
2023-05-24T08:02:58.211Z,102.21
2023-05-24T08:03:48.277Z,109.39
2023-05-24T08:04:38.253Z,110.68
2023-05-24T08:05:28.373Z,113.49
2023-05-24T08:06:18.408Z,110.30
2023-05-24T08:07:10.890Z,110.11
2023-05-24T08:07:58.530Z,114.08
2023-05-24T08:08:48.613Z,108.11
2023-05-24T08:09:38.670Z,107.95
2023-05-24T08:10:29.787Z,104.72
2023-05-24T08:11:18.807Z,106.50
2023-05-24T08:12:09.952Z,105.62
2023-05-24T08:12:58.955Z,104.22
2023-05-24T08:13:49.024Z,102.00
2023-05-24T08:14:39.101Z,100.78
2023-05-24T08:15:29.164Z,101.21
2023-05-24T08:16:19.195Z,101.79
2023-05-24T08:17:09.271Z,98.26
2023-05-24T08:17:59.324Z,101.82
2023-05-24T08:18:49.381Z,97.63
2023-05-24T08:19:39.405Z,96.72
2023-05-24T08:20:29.584Z,93.09
2023-05-24T08:21:19.700Z,94.08
2023-05-24T08:22:09.607Z,96.63
2023-05-24T08:22:59.640Z,92.16
2023-05-24T08:23:49.732Z,88.07
2023-05-24T08:24:39.736Z,93.33
2023-05-24T08:25:29.826Z,90.56
2023-05-24T08:26:19.845Z,87.05
2023-05-24T08:27:09.939Z,86.69
2023-05-24T08:28:00.038Z,92.58
2023-05-24T08:28:50.044Z,98.00
2023-05-24T08:29:40.069Z,90.45
2023-05-24T08:30:30.159Z,88.60
2023-05-24T08:31:20.281Z,94.56
2023-05-24T08:32:10.322Z,89.59
2023-05-24T08:33:00.395Z,89.29
2023-05-24T08:33:50.489Z,88.97
2023-05-24T08:34:40.431Z,90.44
2023-05-24T08:35:30.501Z,84.42
2023-05-24T08:36:20.576Z,90.04
2023-05-24T08:37:10.697Z,86.07
2023-05-24T08:38:00.686Z,87.65
2023-05-24T08:38:50.761Z,83.19
2023-05-24T08:39:40.838Z,85.40
2023-05-24T08:40:30.909Z,91.19
2023-05-24T08:41:20.941Z,96.29
2023-05-24T08:42:11.031Z,89.14
2023-05-24T08:43:01.049Z,89.92
2023-05-24T08:43:51.114Z,85.42
2023-05-24T08:44:41.185Z,86.11
2023-05-24T08:45:31.266Z,86.63
2023-05-24T08:46:21.361Z,88.78
2023-05-24T08:47:11.401Z,83.71
2023-05-24T08:48:01.525Z,78.28
2023-05-24T08:48:51.559Z,78.16
2023-05-24T08:49:41.576Z,85.34
2023-05-24T08:50:31.636Z,78.17
2023-05-24T08:51:21.706Z,78.70
2023-05-24T08:52:11.798Z,80.27
2023-05-24T08:53:01.851Z,84.40
2023-05-24T08:53:51.928Z,88.49
2023-05-24T08:54:41.957Z,89.22
2023-05-24T08:55:33.237Z,87.09
2023-05-24T08:56:22.084Z,86.05
2023-05-24T08:57:12.179Z,85.86
2023-05-24T08:58:02.186Z,88.92
2023-05-24T08:58:52.253Z,81.53
2023-05-24T08:59:42.328Z,82.26
2023-05-24T09:00:32.379Z,82.91
2023-05-24T09:01:22.462Z,84.69
2023-05-24T09:02:12.659Z,80.93
2023-05-24T09:03:02.606Z,79.69
2023-05-24T09:03:52.764Z,79.26
2023-05-24T09:04:42.690Z,77.39
2023-05-24T09:05:32.756Z,74.39
2023-05-24T09:06:22.837Z,78.59
2023-05-24T09:07:12.947Z,78.56
2023-05-24T09:08:02.963Z,78.69
2023-05-24T09:08:53.065Z,80.90
2023-05-24T09:09:43.095Z,80.77
2023-05-24T09:10:41.316Z,80.57
2023-05-24T09:11:24.226Z,80.71
2023-05-24T09:12:19.090Z,81.84
2023-05-24T09:13:04.333Z,81.03
2023-05-24T09:13:53.408Z,83.19
2023-05-24T09:14:43.460Z,87.54
2023-05-24T09:15:33.522Z,88.65
2023-05-24T09:16:23.634Z,93.38
2023-05-24T09:17:13.667Z,99.95
2023-05-24T09:18:03.740Z,104.78
2023-05-24T09:18:53.765Z,107.97
2023-05-24T09:19:43.813Z,99.86
2023-05-24T09:20:33.902Z,96.04
2023-05-24T09:21:23.951Z,95.33
2023-05-24T09:22:14.024Z,93.45
2023-05-24T09:23:04.057Z,97.58
2023-05-24T09:23:54.129Z,94.75
2023-05-24T09:24:44.415Z,101.35
2023-05-24T09:25:34.255Z,98.66
2023-05-24T09:26:24.323Z,93.98
2023-05-24T09:27:14.426Z,98.21
2023-05-24T09:28:04.435Z,100.15
2023-05-24T09:28:54.501Z,99.39
2023-05-24T09:29:44.573Z,102.88
2023-05-24T09:30:34.643Z,112.81
2023-05-24T09:31:24.688Z,113.72
2023-05-24T09:32:14.758Z,117.60
2023-05-24T09:33:04.825Z,105.95
2023-05-24T09:33:54.884Z,107.00
2023-05-24T09:34:44.917Z,108.65
2023-05-24T09:35:34.986Z,113.19
2023-05-24T09:36:25.062Z,107.70
2023-05-24T09:37:15.142Z,111.29
2023-05-24T09:38:05.183Z,108.28
2023-05-24T09:38:55.255Z,105.43
2023-05-24T09:39:45.274Z,99.27
2023-05-24T09:40:35.413Z,99.77
2023-05-24T09:41:25.421Z,96.00
2023-05-24T09:42:15.503Z,92.51
2023-05-24T09:43:05.528Z,87.44
2023-05-24T09:43:55.612Z,92.49
2023-05-24T09:44:45.633Z,90.24
2023-05-24T09:45:35.703Z,90.80
2023-05-24T09:46:25.794Z,86.12
2023-05-24T09:47:15.941Z,83.46
2023-05-24T09:48:05.922Z,85.29
2023-05-24T09:48:55.966Z,83.61
2023-05-24T09:49:47.775Z,84.63
2023-05-24T09:50:36.054Z,84.68
2023-05-24T09:51:26.295Z,85.82
2023-05-24T09:52:16.199Z,88.33
2023-05-24T09:53:06.218Z,92.93
2023-05-24T09:53:56.292Z,96.09
2023-05-24T09:54:46.360Z,102.86
2023-05-24T09:55:36.427Z,98.41
2023-05-24T09:56:26.528Z,96.16
2023-05-24T09:57:16.587Z,90.41
2023-05-24T09:58:06.628Z,91.17
2023-05-24T09:58:56.709Z,89.56
2023-05-24T09:59:46.760Z,86.49
2023-05-24T10:00:36.884Z,88.48
2023-05-24T10:01:27.216Z,79.35
2023-05-24T10:02:17.049Z,81.43
2023-05-24T10:03:07.125Z,85.66
2023-05-24T10:03:57.179Z,83.67
2023-05-24T10:04:47.305Z,81.73
2023-05-24T10:05:37.199Z,76.71
2023-05-24T10:06:27.270Z,78.80
2023-05-24T10:07:17.331Z,79.31
2023-05-24T10:08:07.357Z,72.79
2023-05-24T10:08:57.443Z,76.88
2023-05-24T10:09:47.497Z,72.46
2023-05-24T10:10:37.576Z,69.35
2023-05-24T10:11:27.641Z,77.49
2023-05-24T10:12:17.773Z,73.34
2023-05-24T10:13:07.760Z,77.79
2023-05-24T10:13:57.821Z,77.25
2023-05-24T10:14:47.876Z,77.93
2023-05-24T10:15:37.953Z,82.42
2023-05-24T10:16:28.032Z,83.84
2023-05-24T10:17:18.082Z,83.07
2023-05-24T10:18:09.830Z,79.99
2023-05-24T10:18:58.168Z,80.04
2023-05-24T10:19:48.234Z,80.02
2023-05-24T10:20:38.322Z,78.14
2023-05-24T10:21:28.363Z,77.91
2023-05-24T10:22:18.398Z,76.03
2023-05-24T10:23:08.408Z,80.84
2023-05-24T10:23:58.486Z,82.71
2023-05-24T10:24:48.508Z,87.53
2023-05-24T10:25:38.576Z,83.60
2023-05-24T10:26:28.652Z,83.15
2023-05-24T10:27:18.733Z,81.84
2023-05-24T10:28:08.787Z,81.52
2023-05-24T10:28:58.798Z,86.88
2023-05-24T10:29:48.885Z,91.10
2023-05-24T10:30:39.016Z,97.42
2023-05-24T10:31:29.027Z,93.08
2023-05-24T10:32:19.084Z,95.59
2023-05-24T10:33:09.155Z,101.07
2023-05-24T10:34:07.214Z,106.97
2023-05-24T10:34:50.229Z,107.16
2023-05-24T10:35:39.296Z,107.53
2023-05-24T10:36:29.352Z,107.34
2023-05-24T10:37:19.424Z,108.38
2023-05-24T10:38:09.483Z,100.12
2023-05-24T10:38:59.546Z,100.98
2023-05-24T10:39:49.575Z,104.74
2023-05-24T10:40:39.645Z,105.70
2023-05-24T10:41:29.834Z,105.32
2023-05-24T10:42:19.792Z,96.22